createdAt,value
2018-10-17T00:00:08.297Z,926
2018-10-17T00:00:20.781Z,925.99
2018-10-17T00:00:32.758Z,925.98
2018-10-17T00:00:45.694Z,926.02
2018-10-17T00:00:58.200Z,926.02
2018-10-17T00:01:11.681Z,926.01
2018-10-17T00:01:25.030Z,926
2018-10-17T00:01:37.969Z,925.98
2018-10-17T00:01:50.402Z,925.98
2018-10-17T00:02:02.438Z,926.01
2018-10-17T00:02:15.363Z,926
2018-10-17T00:02:27.861Z,926.05
2018-10-17T00:02:40.296Z,926.02
2018-10-17T00:02:52.705Z,926.01
2018-10-17T00:03:04.713Z,926.03
2018-10-17T00:03:17.164Z,926
2018-10-17T00:03:29.168Z,926.06
2018-10-17T00:03:42.084Z,926.05
2018-10-17T00:03:54.529Z,926.04
2018-10-17T00:04:05.634Z,926.04
2018-10-17T00:04:17.630Z,926.06
2018-10-17T00:04:29.665Z,926.07
2018-10-17T00:04:42.569Z,926.07
2018-10-17T00:04:55.584Z,926.08
2018-10-17T00:05:08.485Z,926.06
2018-10-17T00:05:21.212Z,926.08
2018-10-17T00:05:34.130Z,926.08
2018-10-17T00:05:47.015Z,926.06
2018-10-17T00:05:59.924Z,926.07
2018-10-17T00:06:12.821Z,926.02
2018-10-17T00:06:25.251Z,926.07
2018-10-17T00:06:37.278Z,926.07
2018-10-17T00:06:50.739Z,926.09
2018-10-17T00:07:04.184Z,926.05
2018-10-17T00:07:17.249Z,926.06
2018-10-17T00:07:30.299Z,926.03
2018-10-17T00:07:43.247Z,926.05
2018-10-17T00:07:55.247Z,926.07
2018-10-17T00:08:07.698Z,926.08
2018-10-17T00:08:20.611Z,926.05
2018-10-17T00:08:32.127Z,926.02
2018-10-17T00:08:43.706Z,926.01
2018-10-17T00:08:55.260Z,926.09
2018-10-17T00:09:07.701Z,926.06
2018-10-17T00:09:20.152Z,926.09
2018-10-17T00:09:32.608Z,926.05
2018-10-17T00:09:45.091Z,926.04
2018-10-17T00:09:57.987Z,926.06
2018-10-17T00:10:09.967Z,926.07
2018-10-17T00:10:22.424Z,926.06
2018-10-17T00:10:34.895Z,926.03
2018-10-17T00:10:46.893Z,926.06
2018-10-17T00:11:00.050Z,926.05
2018-10-17T00:11:12.884Z,926.05
2018-10-17T00:11:25.829Z,926.03
2018-10-17T00:11:38.315Z,926.03
2018-10-17T00:11:50.765Z,926.04
2018-10-17T00:12:02.763Z,926.02
2018-10-17T00:12:15.237Z,926.03
2018-10-17T00:12:27.749Z,926.05
2018-10-17T00:12:40.217Z,926.04
2018-10-17T00:12:51.769Z,926.02
2018-10-17T00:13:04.941Z,926.04
2018-10-17T00:13:17.800Z,926.01
2018-10-17T00:13:29.365Z,926.02
2018-10-17T00:13:41.829Z,926.05
2018-10-17T00:13:54.325Z,926
2018-10-17T00:14:05.923Z,926.04
2018-10-17T00:14:17.918Z,926
2018-10-17T00:14:29.912Z,926.01
2018-10-17T00:14:42.379Z,926.01
2018-10-17T00:14:54.857Z,926.01
2018-10-17T00:15:06.408Z,925.99
2018-10-17T00:15:18.844Z,926.04
2018-10-17T00:15:31.326Z,925.99
2018-10-17T00:15:44.246Z,925.99
2018-10-17T00:15:57.154Z,926.02
2018-10-17T00:16:09.158Z,926.01
2018-10-17T00:16:21.636Z,926.05
2018-10-17T00:16:34.122Z,926.02
2018-10-17T00:16:46.125Z,926.05
2018-10-17T00:16:59.255Z,926.05
2018-10-17T00:17:12.643Z,926.05
2018-10-17T00:17:24.140Z,926.04
2018-10-17T00:17:36.566Z,926.04
2018-10-17T00:17:49.489Z,926.07
2018-10-17T00:18:02.412Z,926.06
2018-10-17T00:18:14.363Z,926.08
2018-10-17T00:18:26.798Z,926.04
2018-10-17T00:18:38.767Z,926.12
2018-10-17T00:18:51.710Z,926.11
2018-10-17T00:19:04.413Z,926.13
2018-10-17T00:19:17.336Z,926.08
2018-10-17T00:19:29.791Z,926.12
2018-10-17T00:19:42.724Z,926.12
2018-10-17T00:19:55.640Z,926.08
2018-10-17T00:20:07.649Z,926.08
2018-10-17T00:20:19.669Z,926.13
2018-10-17T00:20:32.666Z,926.09
2018-10-17T00:20:45.606Z,926.13
2018-10-17T00:20:58.541Z,926.12
2018-10-17T00:21:11.523Z,926.15
2018-10-17T00:21:23.996Z,926.16
2018-10-17T00:21:36.468Z,926.11
2018-10-17T00:21:49.569Z,926.12
2018-10-17T00:22:02.010Z,926.1
2018-10-17T00:22:14.484Z,926.11
2018-10-17T00:22:26.946Z,926.12
2018-10-17T00:22:39.855Z,926.13
2018-10-17T00:22:52.379Z,926.09
2018-10-17T00:23:05.768Z,926.14
2018-10-17T00:23:19.142Z,926.09
2018-10-17T00:23:32.058Z,926.1
2018-10-17T00:23:44.535Z,926.09
2018-10-17T00:23:57.436Z,926.07
2018-10-17T00:24:09.888Z,926.08
2018-10-17T00:24:21.920Z,926.11
2018-10-17T00:24:34.822Z,926.07
2018-10-17T00:24:47.740Z,926.11
2018-10-17T00:25:00.932Z,926.05
2018-10-17T00:25:13.266Z,926.09
2018-10-17T00:25:25.983Z,926.09
2018-10-17T00:25:37.978Z,926.06
2018-10-17T00:25:50.909Z,926.1
2018-10-17T00:26:03.805Z,926.11
2018-10-17T00:26:16.729Z,926.07
2018-10-17T00:26:29.160Z,926.08
2018-10-17T00:26:42.049Z,926.07
2018-10-17T00:26:54.986Z,926.08
2018-10-17T00:27:07.469Z,926.08
2018-10-17T00:27:20.438Z,926.09
2018-10-17T00:27:33.392Z,926.06
2018-10-17T00:27:45.864Z,926.09
2018-10-17T00:27:58.824Z,926.07
2018-10-17T00:28:10.834Z,926.1
2018-10-17T00:28:23.751Z,926.11
2018-10-17T00:28:36.225Z,926.1
2018-10-17T00:28:49.161Z,926.11
2018-10-17T00:29:02.488Z,926.14
2018-10-17T00:29:14.934Z,926.15
2018-10-17T00:29:28.026Z,926.12
2018-10-17T00:29:40.952Z,926.14
2018-10-17T00:29:53.873Z,926.17
2018-10-17T00:30:06.339Z,926.16
2018-10-17T00:30:18.380Z,926.19
2018-10-17T00:30:30.395Z,926.17
2018-10-17T00:30:43.310Z,926.18
2018-10-17T00:30:55.890Z,926.21
2018-10-17T00:31:09.466Z,926.17
2018-10-17T00:31:21.697Z,926.2
2018-10-17T00:31:34.146Z,926.2
2018-10-17T00:31:47.083Z,926.19
2018-10-17T00:32:00.000Z,926.2
2018-10-17T00:32:12.489Z,926.2
2018-10-17T00:32:25.381Z,926.17
2018-10-17T00:32:38.330Z,926.17
2018-10-17T00:32:50.787Z,926.2
2018-10-17T00:33:03.259Z,926.15
2018-10-17T00:33:15.763Z,926.19
2018-10-17T00:33:27.768Z,926.21
2018-10-17T00:33:40.231Z,926.18
2018-10-17T00:33:52.723Z,926.22
2018-10-17T00:34:05.636Z,926.15
2018-10-17T00:34:17.640Z,926.15
2018-10-17T00:34:30.098Z,926.17
2018-10-17T00:34:42.559Z,926.17
2018-10-17T00:34:55.166Z,926.18
2018-10-17T00:35:08.510Z,926.15
2018-10-17T00:35:21.428Z,926.15
2018-10-17T00:35:34.404Z,926.14
2018-10-17T00:35:46.417Z,926.15
2018-10-17T00:35:58.466Z,926.15
2018-10-17T00:36:10.496Z,926.15
2018-10-17T00:36:22.470Z,926.12
2018-10-17T00:36:34.932Z,926.12
2018-10-17T00:36:47.916Z,926.12
2018-10-17T00:37:01.568Z,926.13
2018-10-17T00:37:15.125Z,926.09
2018-10-17T00:37:27.712Z,926.1
2018-10-17T00:37:40.235Z,926.12
2018-10-17T00:37:53.150Z,926.1
2018-10-17T00:38:05.141Z,926.12
2018-10-17T00:38:18.092Z,926.08
2018-10-17T00:38:30.989Z,926.07
2018-10-17T00:38:43.439Z,926.11
2018-10-17T00:38:54.531Z,926.11
2018-10-17T00:39:07.512Z,926.09
2018-10-17T00:39:19.983Z,926.1
2018-10-17T00:39:31.495Z,926.11
2018-10-17T00:39:43.987Z,926.11
2018-10-17T00:39:56.902Z,926.08
2018-10-17T00:40:09.371Z,926.09
2018-10-17T00:40:22.165Z,926.12
2018-10-17T00:40:35.834Z,926.12
2018-10-17T00:40:47.764Z,926.09
2018-10-17T00:41:00.906Z,926.12
2018-10-17T00:41:13.908Z,926.13
2018-10-17T00:41:27.080Z,926.15
2018-10-17T00:41:39.559Z,926.12
2018-10-17T00:41:52.055Z,926.12
2018-10-17T00:42:04.967Z,926.09
2018-10-17T00:42:17.912Z,926.14
2018-10-17T00:42:30.864Z,926.13
2018-10-17T00:42:43.781Z,926.14
2018-10-17T00:42:56.808Z,926.1
2018-10-17T00:43:10.095Z,926.13
2018-10-17T00:43:22.376Z,926.14
2018-10-17T00:43:35.325Z,926.17
2018-10-17T00:43:47.828Z,926.14
2018-10-17T00:43:59.780Z,926.18
2018-10-17T00:44:11.744Z,926.16
2018-10-17T00:44:24.712Z,926.15
2018-10-17T00:44:37.179Z,926.14
2018-10-17T00:44:49.602Z,926.13
2018-10-17T00:45:02.069Z,926.15
2018-10-17T00:45:14.062Z,926.14
2018-10-17T00:45:26.982Z,926.17
2018-10-17T00:45:39.451Z,926.17
2018-10-17T00:45:51.872Z,926.16
2018-10-17T00:46:04.299Z,926.14
2018-10-17T00:46:16.760Z,926.15
2018-10-17T00:46:29.221Z,926.17
2018-10-17T00:46:42.186Z,926.18
2018-10-17T00:46:54.198Z,926.14
2018-10-17T00:47:06.542Z,926.14
2018-10-17T00:47:19.310Z,926.15
2018-10-17T00:47:31.767Z,926.16
2018-10-17T00:47:44.224Z,926.2
2018-10-17T00:47:57.185Z,926.16
2018-10-17T00:48:09.657Z,926.17
2018-10-17T00:48:22.105Z,926.15
2018-10-17T00:48:34.572Z,926.18
2018-10-17T00:48:47.519Z,926.19
2018-10-17T00:48:59.648Z,926.17
2018-10-17T00:49:12.755Z,926.16
2018-10-17T00:49:25.839Z,926.16
2018-10-17T00:49:38.773Z,926.16
2018-10-17T00:49:50.779Z,926.14
2018-10-17T00:50:02.758Z,926.15
2018-10-17T00:50:14.749Z,926.14
2018-10-17T00:50:27.670Z,926.14
2018-10-17T00:50:40.161Z,926.14
2018-10-17T00:50:52.666Z,926.13
2018-10-17T00:51:05.590Z,926.15
2018-10-17T00:51:18.063Z,926.11
2018-10-17T00:51:31.029Z,926.11
2018-10-17T00:51:43.926Z,926.15
2018-10-17T00:51:56.840Z,926.15
2018-10-17T00:52:09.144Z,926.15
2018-10-17T00:52:22.085Z,926.11
2018-10-17T00:52:34.994Z,926.09
2018-10-17T00:52:47.506Z,926.08
2018-10-17T00:53:00.799Z,926.1
2018-10-17T00:53:14.319Z,926.1
2018-10-17T00:53:26.873Z,926.09
2018-10-17T00:53:39.331Z,926.09
2018-10-17T00:53:51.832Z,926.07
2018-10-17T00:54:04.325Z,926.12
2018-10-17T00:54:17.261Z,926.09
2018-10-17T00:54:29.254Z,926.09
2018-10-17T00:54:41.722Z,926.11
2018-10-17T00:54:54.206Z,926.13
2018-10-17T00:55:07.559Z,926.11
2018-10-17T00:55:20.415Z,926.14
2018-10-17T00:55:33.337Z,926.13
2018-10-17T00:55:46.273Z,926.12
2018-10-17T00:55:58.687Z,926.15
2018-10-17T00:56:11.584Z,926.16
2018-10-17T00:56:23.572Z,926.17
2018-10-17T00:56:35.573Z,926.16
2018-10-17T00:56:47.998Z,926.17
2018-10-17T00:57:00.444Z,926.18
2018-10-17T00:57:13.372Z,926.18
2018-10-17T00:57:25.932Z,926.18
2018-10-17T00:57:38.851Z,926.21
2018-10-17T00:57:50.817Z,926.21
2018-10-17T00:58:02.372Z,926.23
2018-10-17T00:58:14.363Z,926.24
2018-10-17T00:58:26.833Z,926.25
2018-10-17T00:58:39.284Z,926.22
2018-10-17T00:58:52.276Z,926.22
2018-10-17T00:59:05.034Z,926.25
2018-10-17T00:59:17.932Z,926.23
2018-10-17T00:59:30.863Z,926.23
2018-10-17T00:59:43.361Z,926.26
2018-10-17T00:59:55.794Z,926.28
2018-10-17T01:00:07.786Z,926.31
2018-10-17T01:00:19.754Z,926.25
2018-10-17T01:00:32.701Z,926.25
2018-10-17T01:00:45.156Z,926.3
2018-10-17T01:00:57.853Z,926.29
2018-10-17T01:01:09.802Z,926.29
2018-10-17T01:01:22.499Z,926.3
2018-10-17T01:01:35.001Z,926.29
2018-10-17T01:01:47.932Z,926.32
2018-10-17T01:02:00.878Z,926.28
2018-10-17T01:02:12.956Z,926.28
2018-10-17T01:02:25.904Z,926.32
2018-10-17T01:02:38.821Z,926.28
2018-10-17T01:02:50.841Z,926.26
2018-10-17T01:03:03.323Z,926.25
2018-10-17T01:03:16.259Z,926.26
2018-10-17T01:03:29.171Z,926.27
2018-10-17T01:03:42.140Z,926.28
2018-10-17T01:03:54.194Z,926.27
2018-10-17T01:04:07.114Z,926.26
2018-10-17T01:04:20.036Z,926.24
2018-10-17T01:04:32.506Z,926.22
2018-10-17T01:04:45.419Z,926.23
2018-10-17T01:04:58.483Z,926.26
2018-10-17T01:05:10.955Z,926.25
2018-10-17T01:05:24.129Z,926.2
2018-10-17T01:05:37.063Z,926.23
2018-10-17T01:05:49.099Z,926.22
2018-10-17T01:06:01.580Z,926.2
2018-10-17T01:06:13.589Z,926.2
2018-10-17T01:06:25.170Z,926.18
2018-10-17T01:06:37.650Z,926.22
2018-10-17T01:06:50.131Z,926.21
2018-10-17T01:07:02.835Z,926.2
2018-10-17T01:07:17.526Z,926.2
2018-10-17T01:07:30.013Z,926.18
2018-10-17T01:07:42.968Z,926.2
2018-10-17T01:07:55.420Z,926.19
2018-10-17T01:08:08.333Z,926.17
2018-10-17T01:08:20.806Z,926.16
2018-10-17T01:08:33.269Z,926.18
2018-10-17T01:08:45.766Z,926.18
2018-10-17T01:08:58.228Z,926.19
2018-10-17T01:09:10.240Z,926.14
2018-10-17T01:09:22.694Z,926.12
2018-10-17T01:09:35.172Z,926.16
2018-10-17T01:09:48.113Z,926.19
2018-10-17T01:10:01.093Z,926.13
2018-10-17T01:10:14.016Z,926.17
2018-10-17T01:10:26.505Z,926.14
2018-10-17T01:10:39.456Z,926.12
2018-10-17T01:10:52.487Z,926.16
2018-10-17T01:11:05.746Z,926.13
2018-10-17T01:11:19.096Z,926.12
2018-10-17T01:11:32.080Z,926.08
2018-10-17T01:11:45.036Z,926.1
2018-10-17T01:11:57.972Z,926.1
2018-10-17T01:12:10.920Z,926.11
2018-10-17T01:12:23.362Z,926.1
2018-10-17T01:12:35.326Z,926.09
2018-10-17T01:12:48.248Z,926.07
2018-10-17T01:13:01.452Z,926.07
2018-10-17T01:13:14.907Z,926.06
2018-10-17T01:13:27.458Z,926.07
2018-10-17T01:13:39.923Z,926.05
2018-10-17T01:13:52.368Z,926.03
2018-10-17T01:14:05.281Z,926.07
2018-10-17T01:14:18.190Z,926.02
2018-10-17T01:14:31.104Z,926.03
2018-10-17T01:14:44.027Z,925.99
2018-10-17T01:14:56.515Z,925.95
2018-10-17T01:15:08.968Z,925.96
2018-10-17T01:15:21.397Z,925.96
2018-10-17T01:15:33.849Z,925.95
2018-10-17T01:15:46.322Z,925.95
2018-10-17T01:15:59.230Z,925.93
2018-10-17T01:16:11.701Z,925.93
2018-10-17T01:16:24.193Z,925.92
2018-10-17T01:16:36.640Z,925.94
2018-10-17T01:16:48.633Z,925.96
2018-10-17T01:17:01.330Z,925.94
2018-10-17T01:17:14.841Z,925.97
2018-10-17T01:17:27.863Z,925.92
2018-10-17T01:17:39.892Z,925.93
2018-10-17T01:17:52.794Z,925.88
2018-10-17T01:18:05.228Z,925.91
2018-10-17T01:18:17.226Z,925.9
2018-10-17T01:18:29.729Z,925.89
2018-10-17T01:18:42.188Z,925.88
2018-10-17T01:18:54.734Z,925.86
2018-10-17T01:19:08.026Z,925.94
2018-10-17T01:19:21.343Z,925.91
2018-10-17T01:19:33.343Z,925.92
2018-10-17T01:19:46.249Z,925.92
2018-10-17T01:19:58.739Z,925.93
2018-10-17T01:20:11.170Z,925.95
2018-10-17T01:20:23.614Z,925.91
2018-10-17T01:20:36.085Z,925.88
2018-10-17T01:20:48.985Z,925.89
2018-10-17T01:21:01.491Z,925.92
2018-10-17T01:21:13.467Z,925.9
2018-10-17T01:21:25.986Z,925.87
2018-10-17T01:21:38.909Z,925.91
2018-10-17T01:21:51.797Z,925.9
2018-10-17T01:22:04.300Z,925.92
2018-10-17T01:22:16.526Z,925.88
2018-10-17T01:22:29.457Z,925.93
2018-10-17T01:22:42.406Z,925.91
2018-10-17T01:22:55.479Z,925.92
2018-10-17T01:23:08.775Z,925.92
2018-10-17T01:23:20.993Z,925.92
2018-10-17T01:23:33.921Z,925.92
2018-10-17T01:23:46.848Z,925.92
2018-10-17T01:23:59.323Z,925.91
2018-10-17T01:24:11.822Z,925.92
2018-10-17T01:24:24.771Z,925.91
2018-10-17T01:24:37.683Z,925.92
2018-10-17T01:24:50.126Z,925.91
2018-10-17T01:25:02.865Z,925.93
2018-10-17T01:25:16.353Z,925.95
2018-10-17T01:25:28.360Z,925.93
2018-10-17T01:25:41.311Z,925.95
2018-10-17T01:25:53.754Z,925.93
2018-10-17T01:26:06.671Z,925.92
2018-10-17T01:26:19.630Z,925.94
2018-10-17T01:26:32.581Z,925.89
2018-10-17T01:26:45.039Z,925.9
2018-10-17T01:26:59.411Z,925.9
2018-10-17T01:27:12.321Z,925.9
2018-10-17T01:27:24.797Z,925.91
2018-10-17T01:27:37.252Z,925.92
2018-10-17T01:27:50.234Z,925.89
2018-10-17T01:28:02.705Z,925.9
2018-10-17T01:28:15.194Z,925.86
2018-10-17T01:28:28.110Z,925.9
2018-10-17T01:28:41.050Z,925.91
2018-10-17T01:28:53.991Z,925.88
2018-10-17T01:29:07.448Z,925.9
2018-10-17T01:29:20.150Z,925.89
2018-10-17T01:29:33.075Z,925.91
2018-10-17T01:29:45.572Z,925.89
2018-10-17T01:29:58.060Z,925.88
2018-10-17T01:30:10.934Z,925.89
2018-10-17T01:30:22.958Z,925.9
2018-10-17T01:30:34.494Z,925.93
2018-10-17T01:30:46.946Z,925.91
2018-10-17T01:30:59.578Z,925.93
2018-10-17T01:31:12.535Z,925.93
2018-10-17T01:31:25.775Z,925.91
2018-10-17T01:31:38.226Z,925.92
2018-10-17T01:31:50.754Z,925.94
2018-10-17T01:32:03.211Z,925.93
2018-10-17T01:32:15.644Z,925.93
2018-10-17T01:32:28.558Z,925.94
2018-10-17T01:32:40.553Z,925.95
2018-10-17T01:32:53.026Z,925.94
2018-10-17T01:33:05.477Z,925.94
2018-10-17T01:33:17.888Z,925.97
2018-10-17T01:33:30.345Z,925.96
2018-10-17T01:33:43.460Z,925.96
2018-10-17T01:33:56.352Z,925.95
2018-10-17T01:34:08.800Z,925.98
2018-10-17T01:34:21.231Z,926
2018-10-17T01:34:34.148Z,926
2018-10-17T01:34:47.105Z,925.99
2018-10-17T01:35:00.237Z,926.01
2018-10-17T01:35:12.076Z,926
2018-10-17T01:35:24.816Z,925.98
2018-10-17T01:35:37.306Z,925.97
2018-10-17T01:35:50.233Z,925.94
2018-10-17T01:36:02.705Z,925.97
2018-10-17T01:36:14.729Z,925.97
2018-10-17T01:36:27.640Z,925.95
2018-10-17T01:36:40.557Z,925.95
2018-10-17T01:36:53.576Z,925.97
2018-10-17T01:37:06.365Z,925.94
2018-10-17T01:37:19.994Z,925.94
2018-10-17T01:37:32.921Z,925.91
2018-10-17T01:37:45.812Z,925.91
2018-10-17T01:37:58.295Z,925.95
2018-10-17T01:38:11.224Z,925.93
2018-10-17T01:38:24.164Z,925.93
2018-10-17T01:38:37.099Z,925.93
2018-10-17T01:38:49.568Z,925.97
2018-10-17T01:39:02.057Z,925.96
2018-10-17T01:39:14.584Z,925.9
2018-10-17T01:39:27.072Z,925.92
2018-10-17T01:39:39.571Z,925.9
2018-10-17T01:39:52.492Z,925.93
2018-10-17T01:40:05.462Z,925.96
2018-10-17T01:40:18.052Z,925.97
2018-10-17T01:40:30.330Z,925.95
2018-10-17T01:40:42.829Z,925.96
2018-10-17T01:40:55.878Z,925.96
2018-10-17T01:41:09.136Z,925.95
2018-10-17T01:41:22.802Z,925.98
2018-10-17T01:41:34.815Z,925.96
2018-10-17T01:41:47.846Z,925.95
2018-10-17T01:42:00.326Z,925.96
2018-10-17T01:42:13.220Z,926.01
2018-10-17T01:42:26.225Z,925.98
2018-10-17T01:42:38.738Z,926.02
2018-10-17T01:42:50.770Z,925.97
2018-10-17T01:43:03.021Z,926
2018-10-17T01:43:15.362Z,925.97
2018-10-17T01:43:28.086Z,925.98
2018-10-17T01:43:41.036Z,925.97
2018-10-17T01:43:53.517Z,926.02
2018-10-17T01:44:05.998Z,925.99
2018-10-17T01:44:18.918Z,926.01
2018-10-17T01:44:31.030Z,926.01
2018-10-17T01:44:43.526Z,926
2018-10-17T01:44:55.958Z,925.98
2018-10-17T01:45:08.413Z,925.98
2018-10-17T01:45:21.327Z,925.96
2018-10-17T01:45:33.333Z,926.01
2018-10-17T01:45:46.266Z,925.99
2018-10-17T01:45:59.166Z,926
2018-10-17T01:46:11.624Z,926
2018-10-17T01:46:24.088Z,926.03
2018-10-17T01:46:37.023Z,926.02
2018-10-17T01:46:49.508Z,926.01
2018-10-17T01:47:02.238Z,926.01
2018-10-17T01:47:15.862Z,926.03
2018-10-17T01:47:28.858Z,926.03
2018-10-17T01:47:41.774Z,926
2018-10-17T01:47:54.716Z,926.01
2018-10-17T01:48:07.846Z,925.98
2018-10-17T01:48:20.801Z,926.03
2018-10-17T01:48:33.741Z,926.01
2018-10-17T01:48:46.680Z,926.03
2018-10-17T01:48:59.866Z,926.03
2018-10-17T01:49:11.645Z,926.02
2018-10-17T01:49:24.770Z,926.05
2018-10-17T01:49:36.765Z,926.05
2018-10-17T01:49:49.683Z,926.04
2018-10-17T01:50:02.166Z,926.06
2018-10-17T01:50:15.130Z,926.03
2018-10-17T01:50:28.056Z,926.06
2018-10-17T01:50:40.977Z,926.05
2018-10-17T01:50:53.898Z,926.07
2018-10-17T01:51:06.361Z,926.08
2018-10-17T01:51:18.820Z,926.05
2018-10-17T01:51:31.760Z,926.05
2018-10-17T01:51:44.261Z,926.07
2018-10-17T01:51:57.201Z,926.04
2018-10-17T01:52:10.094Z,926.05
2018-10-17T01:52:23.710Z,926.05
2018-10-17T01:52:36.655Z,926.04
2018-10-17T01:52:49.550Z,926.06
2018-10-17T01:53:02.287Z,926
2018-10-17T01:53:15.586Z,925.99
2018-10-17T01:53:28.021Z,926.03
2018-10-17T01:53:40.979Z,926.03
2018-10-17T01:53:53.956Z,926.03
2018-10-17T01:54:05.508Z,926.02
2018-10-17T01:54:17.506Z,926
2018-10-17T01:54:29.992Z,926.02
2018-10-17T01:54:42.905Z,926.01
2018-10-17T01:54:55.964Z,926.03
2018-10-17T01:55:08.236Z,926.01
2018-10-17T01:55:20.924Z,925.98
2018-10-17T01:55:33.427Z,926.01
2018-10-17T01:55:45.911Z,925.98
2018-10-17T01:55:58.865Z,925.97
2018-10-17T01:56:11.302Z,925.95
2018-10-17T01:56:23.966Z,925.97
2018-10-17T01:56:36.411Z,925.99
2018-10-17T01:56:49.340Z,926
2018-10-17T01:57:02.514Z,925.98
2018-10-17T01:57:14.048Z,925.99
2018-10-17T01:57:26.956Z,925.95
2018-10-17T01:57:39.864Z,925.97
2018-10-17T01:57:52.296Z,925.98
2018-10-17T01:58:04.314Z,925.98
2018-10-17T01:58:16.344Z,925.92
2018-10-17T01:58:28.349Z,925.96
2018-10-17T01:58:40.795Z,925.93
2018-10-17T01:58:53.377Z,925.97
2018-10-17T01:59:05.498Z,925.97
2018-10-17T01:59:18.367Z,925.92
2018-10-17T01:59:31.296Z,925.96
2018-10-17T01:59:43.747Z,925.94
2018-10-17T01:59:56.659Z,925.92
2018-10-17T02:00:09.117Z,925.96
2018-10-17T02:00:21.099Z,925.96
2018-10-17T02:00:33.584Z,925.95
2018-10-17T02:00:46.041Z,925.93
2018-10-17T02:00:58.083Z,925.93
2018-10-17T02:01:11.000Z,925.93
2018-10-17T02:01:24.127Z,925.91
2018-10-17T02:01:37.296Z,925.95
2018-10-17T02:01:49.733Z,925.94
2018-10-17T02:02:01.707Z,925.85
2018-10-17T02:02:14.177Z,925.91
2018-10-17T02:02:26.647Z,925.93
2018-10-17T02:02:39.139Z,925.9
2018-10-17T02:02:52.301Z,925.94
2018-10-17T02:03:04.301Z,925.96
2018-10-17T02:03:17.263Z,925.91
2018-10-17T02:03:29.254Z,925.89
2018-10-17T02:03:42.172Z,925.9
2018-10-17T02:03:54.633Z,925.9
2018-10-17T02:04:07.519Z,925.89
2018-10-17T02:04:20.424Z,925.89
2018-10-17T02:04:33.329Z,925.93
2018-10-17T02:04:45.818Z,925.93
2018-10-17T02:04:58.360Z,925.88
2018-10-17T02:05:11.752Z,925.9
2018-10-17T02:05:24.821Z,925.9
2018-10-17T02:05:37.340Z,925.94
2018-10-17T02:05:50.267Z,925.9
2018-10-17T02:06:02.793Z,925.93
2018-10-17T02:06:15.733Z,925.92
2018-10-17T02:06:28.741Z,925.9
2018-10-17T02:06:40.737Z,925.91
2018-10-17T02:06:53.691Z,925.9
2018-10-17T02:07:07.140Z,925.93
2018-10-17T02:07:20.140Z,925.91
2018-10-17T02:07:35.813Z,925.91
2018-10-17T02:07:47.827Z,925.89
2018-10-17T02:07:59.366Z,925.88
2018-10-17T02:08:11.850Z,925.91
2018-10-17T02:08:24.763Z,925.89
2018-10-17T02:08:37.238Z,925.87
2018-10-17T02:08:49.269Z,925.9
2018-10-17T02:09:02.183Z,925.87
2018-10-17T02:09:13.741Z,925.88
2018-10-17T02:09:25.484Z,925.88
2018-10-17T02:09:37.445Z,925.83
2018-10-17T02:09:50.386Z,925.9
2018-10-17T02:10:01.964Z,925.88
2018-10-17T02:10:13.944Z,925.86
2018-10-17T02:10:26.852Z,925.86
2018-10-17T02:10:39.822Z,925.84
2018-10-17T02:10:52.774Z,925.84
2018-10-17T02:11:05.618Z,925.84
2018-10-17T02:11:18.808Z,925.87
2018-10-17T02:11:31.513Z,925.84
2018-10-17T02:11:43.976Z,925.86
2018-10-17T02:11:56.003Z,925.84
2018-10-17T02:12:08.939Z,925.85
2018-10-17T02:12:21.380Z,925.83
2018-10-17T02:12:34.031Z,925.85
2018-10-17T02:12:46.992Z,925.83
2018-10-17T02:13:00.124Z,925.82
2018-10-17T02:13:14.205Z,925.79
2018-10-17T02:13:26.297Z,925.77
2018-10-17T02:13:38.774Z,925.79
2018-10-17T02:13:51.683Z,925.77
2018-10-17T02:14:04.597Z,925.8
2018-10-17T02:14:17.572Z,925.79
2018-10-17T02:14:30.561Z,925.79
2018-10-17T02:14:43.479Z,925.79
2018-10-17T02:14:55.940Z,925.78
2018-10-17T02:15:07.934Z,925.78
2018-10-17T02:15:20.391Z,925.77
2018-10-17T02:15:32.868Z,925.76
2018-10-17T02:15:45.344Z,925.75
2018-10-17T02:15:57.837Z,925.76
2018-10-17T02:16:10.318Z,925.79
2018-10-17T02:16:22.822Z,925.78
2018-10-17T02:16:35.729Z,925.75
2018-10-17T02:16:48.652Z,925.79
2018-10-17T02:17:01.529Z,925.8
2018-10-17T02:17:15.617Z,925.76
2018-10-17T02:17:28.133Z,925.8
2018-10-17T02:17:40.135Z,925.78
2018-10-17T02:17:53.068Z,925.78
2018-10-17T02:18:06.959Z,925.79
2018-10-17T02:18:19.873Z,925.8
2018-10-17T02:18:32.780Z,925.76
2018-10-17T02:18:45.212Z,925.75
2018-10-17T02:18:57.795Z,925.76
2018-10-17T02:19:10.844Z,925.75
2018-10-17T02:19:23.937Z,925.77
2018-10-17T02:19:36.390Z,925.75
2018-10-17T02:19:49.364Z,925.75
2018-10-17T02:20:01.857Z,925.77
2018-10-17T02:20:14.522Z,925.78
2018-10-17T02:20:26.959Z,925.78
2018-10-17T02:20:38.933Z,925.77
2018-10-17T02:20:50.942Z,925.72
2018-10-17T02:21:03.961Z,925.74
2018-10-17T02:21:16.457Z,925.75
2018-10-17T02:21:28.943Z,925.74
2018-10-17T02:21:41.426Z,925.76
2018-10-17T02:21:53.893Z,925.76
2018-10-17T02:22:05.889Z,925.72
2018-10-17T02:22:17.893Z,925.74
2018-10-17T02:22:30.344Z,925.76
2018-10-17T02:22:43.079Z,925.73
2018-10-17T02:22:56.409Z,925.77
2018-10-17T02:23:09.801Z,925.76
2018-10-17T02:23:22.465Z,925.79
2018-10-17T02:23:34.925Z,925.76
2018-10-17T02:23:47.881Z,925.74
2018-10-17T02:24:00.830Z,925.76
2018-10-17T02:24:13.254Z,925.74
2018-10-17T02:24:25.298Z,925.77
2018-10-17T02:24:37.322Z,925.76
2018-10-17T02:24:50.242Z,925.76
2018-10-17T02:25:03.108Z,925.76
2018-10-17T02:25:15.541Z,925.76
2018-10-17T02:25:28.019Z,925.77
2018-10-17T02:25:40.952Z,925.77
2018-10-17T02:25:53.849Z,925.76
2018-10-17T02:26:06.282Z,925.77
2018-10-17T02:26:18.758Z,925.77
2018-10-17T02:26:31.703Z,925.77
2018-10-17T02:26:44.170Z,925.74
2018-10-17T02:26:56.132Z,925.74
2018-10-17T02:27:08.999Z,925.75
2018-10-17T02:27:21.909Z,925.78
2018-10-17T02:27:34.838Z,925.77
2018-10-17T02:27:47.780Z,925.77
2018-10-17T02:28:00.263Z,925.81
2018-10-17T02:28:12.718Z,925.78
2018-10-17T02:28:25.190Z,925.78
2018-10-17T02:28:38.156Z,925.81
2018-10-17T02:28:51.075Z,925.82
2018-10-17T02:29:03.431Z,925.77
2018-10-17T02:29:16.452Z,925.81
2018-10-17T02:29:29.519Z,925.81
2018-10-17T02:29:41.527Z,925.77
2018-10-17T02:29:54.150Z,925.81
2018-10-17T02:30:07.289Z,925.81
2018-10-17T02:30:18.714Z,925.78
2018-10-17T02:30:31.276Z,925.8
2018-10-17T02:30:44.224Z,925.8
2018-10-17T02:30:57.232Z,925.79
2018-10-17T02:31:10.303Z,925.8
2018-10-17T02:31:22.149Z,925.81
2018-10-17T02:31:34.607Z,925.84
2018-10-17T02:31:47.788Z,925.83
2018-10-17T02:32:00.456Z,925.81
2018-10-17T02:32:13.360Z,925.83
2018-10-17T02:32:26.289Z,925.8
2018-10-17T02:32:38.302Z,925.82
2018-10-17T02:32:51.208Z,925.81
2018-10-17T02:33:04.116Z,925.81
2018-10-17T02:33:17.266Z,925.8
2018-10-17T02:33:30.233Z,925.77
2018-10-17T02:33:42.687Z,925.85
2018-10-17T02:33:55.173Z,925.82
2018-10-17T02:34:07.637Z,925.83
2018-10-17T02:34:20.346Z,925.82
2018-10-17T02:34:33.302Z,925.79
2018-10-17T02:34:45.543Z,925.81
2018-10-17T02:34:58.245Z,925.79
2018-10-17T02:35:11.140Z,925.77
2018-10-17T02:35:24.020Z,925.79
2018-10-17T02:35:36.966Z,925.82
2018-10-17T02:35:49.455Z,925.79
2018-10-17T02:36:02.361Z,925.76
2018-10-17T02:36:14.407Z,925.8
2018-10-17T02:36:27.365Z,925.75
2018-10-17T02:36:39.855Z,925.79
2018-10-17T02:36:52.826Z,925.79
2018-10-17T02:37:05.597Z,925.77
2018-10-17T02:37:18.176Z,925.79
2018-10-17T02:37:31.172Z,925.79
2018-10-17T02:37:43.621Z,925.78
2018-10-17T02:37:57.703Z,925.78
2018-10-17T02:38:10.160Z,925.78
2018-10-17T02:38:23.109Z,925.76